createdAt,value
2022-10-15T00:02:03.951Z,14.09
2022-10-15T00:04:31.244Z,14.09
2022-10-15T00:06:57.841Z,14.19
2022-10-15T00:09:24.313Z,14.22
2022-10-15T00:11:51.432Z,14.30
2022-10-15T00:14:18.323Z,14.37
2022-10-15T00:16:45.008Z,14.41
2022-10-15T00:19:11.559Z,14.41
2022-10-15T00:21:38.788Z,14.41
2022-10-15T00:24:05.625Z,14.37
2022-10-15T00:26:32.145Z,14.36
2022-10-15T00:29:04.256Z,14.36
2022-10-15T00:31:32.430Z,14.28
2022-10-15T00:34:00.418Z,14.22
2022-10-15T00:36:30.159Z,14.14
2022-10-15T00:38:57.206Z,14.17
2022-10-15T00:41:33.438Z,14.15
2022-10-15T00:44:00.987Z,14.14
2022-10-15T00:46:30.286Z,14.13
2022-10-15T00:49:12.392Z,14.17
2022-10-15T00:51:44.641Z,14.19
2022-10-15T00:54:12.788Z,14.15
2022-10-15T00:56:41.454Z,14.09
2022-10-15T00:59:09.662Z,14.02
2022-10-15T01:01:36.158Z,14.02
2022-10-15T01:04:03.018Z,14.02
2022-10-15T01:06:29.660Z,14.06
2022-10-15T01:08:56.839Z,14.02
2022-10-15T01:11:41.512Z,14.10
2022-10-15T01:14:32.650Z,14.07
2022-10-15T01:17:07.914Z,14.03
2022-10-15T01:20:21.904Z,14.09
2022-10-15T01:23:12.832Z,14.04
2022-10-15T01:25:47.944Z,14.08
2022-10-15T01:28:35.639Z,14.07
2022-10-15T01:31:26.684Z,14.00
2022-10-15T01:34:02.661Z,14.06
2022-10-15T01:36:39.380Z,14.08
2022-10-15T01:39:31.998Z,14.01
2022-10-15T01:42:03.744Z,13.96
2022-10-15T01:44:42.836Z,13.99
2022-10-15T01:47:29.721Z,13.97
2022-10-15T01:49:57.848Z,13.91
2022-10-15T01:52:28.788Z,13.87
2022-10-15T01:54:55.858Z,13.83
2022-10-15T01:57:26.110Z,13.86
2022-10-15T01:59:54.116Z,13.94
2022-10-15T02:02:20.865Z,14.02
2022-10-15T02:04:47.600Z,14.02
2022-10-15T02:07:53.541Z,14.01
2022-10-15T02:13:24.660Z,13.99
2022-10-15T02:16:03.112Z,14.01
2022-10-15T02:18:42.177Z,14.07
2022-10-15T02:21:28.833Z,14.10
2022-10-15T02:24:10.269Z,14.14
2022-10-15T02:26:38.829Z,14.21
2022-10-15T02:29:07.821Z,14.25
2022-10-15T02:31:37.653Z,14.20
2022-10-15T02:34:07.891Z,14.25
2022-10-15T02:36:35.455Z,14.21
2022-10-15T02:39:04.456Z,14.09
2022-10-15T02:41:30.896Z,14.02
2022-10-15T02:43:57.401Z,14.02
2022-10-15T02:46:23.869Z,14.02
2022-10-15T02:48:50.286Z,14.05
2022-10-15T02:51:16.735Z,14.04
2022-10-15T02:53:43.188Z,13.99
2022-10-15T02:56:09.616Z,13.94
2022-10-15T02:58:36.042Z,13.85
2022-10-15T03:01:02.627Z,13.89
2022-10-15T03:03:29.091Z,13.96
2022-10-15T03:05:55.739Z,13.99
2022-10-15T03:08:22.393Z,13.96
2022-10-15T03:10:48.852Z,13.91
2022-10-15T03:13:15.288Z,13.93
2022-10-15T03:15:41.781Z,13.90
2022-10-15T03:18:08.592Z,13.81
2022-10-15T03:20:35.189Z,13.85
2022-10-15T03:23:02.027Z,13.87
2022-10-15T03:25:28.443Z,13.87
2022-10-15T03:27:54.923Z,13.84
2022-10-15T03:30:21.449Z,13.80
2022-10-15T03:32:48.346Z,13.78
2022-10-15T03:35:14.980Z,13.79
2022-10-15T03:37:41.459Z,13.71
2022-10-15T03:40:13.458Z,13.67
2022-10-15T03:42:41.199Z,13.70
2022-10-15T03:45:08.436Z,13.74
2022-10-15T03:47:34.852Z,13.76
2022-10-15T03:50:01.304Z,13.74
2022-10-15T03:52:27.748Z,13.57
2022-10-15T03:54:54.165Z,13.54
2022-10-15T03:57:20.614Z,13.57
2022-10-15T03:59:47.027Z,13.60
2022-10-15T04:02:13.490Z,13.59
2022-10-15T04:04:40.132Z,13.54
2022-10-15T04:07:06.604Z,13.58
2022-10-15T04:09:33.011Z,13.67
2022-10-15T04:11:59.439Z,13.66
2022-10-15T04:14:25.994Z,13.68
2022-10-15T04:16:52.397Z,13.75
2022-10-15T04:19:18.809Z,13.78
2022-10-15T04:21:45.199Z,13.82
2022-10-15T04:24:11.648Z,13.86
2022-10-15T04:26:38.291Z,13.87
2022-10-15T04:29:05.143Z,13.92
2022-10-15T04:31:31.773Z,13.86
2022-10-15T04:33:58.214Z,13.89
2022-10-15T04:36:24.817Z,13.96
2022-10-15T04:38:52.630Z,13.98
2022-10-15T04:41:19.038Z,13.90
2022-10-15T04:43:45.550Z,13.81
2022-10-15T04:46:12.373Z,13.80
2022-10-15T04:48:42.208Z,13.85
2022-10-15T04:51:13.881Z,13.91
2022-10-15T04:53:40.540Z,13.92
2022-10-15T04:56:08.893Z,13.94
2022-10-15T04:58:36.261Z,13.95
2022-10-15T05:01:07.653Z,14.01
2022-10-15T05:03:36.575Z,14.00
2022-10-15T05:06:08.308Z,14.05
2022-10-15T05:08:36.062Z,14.01
2022-10-15T05:11:07.975Z,13.97
2022-10-15T05:13:34.901Z,14.05
2022-10-15T05:16:13.396Z,14.06
2022-10-15T05:18:40.276Z,14.09
2022-10-15T05:21:07.432Z,14.11
2022-10-15T05:23:33.972Z,14.12
2022-10-15T05:26:02.065Z,14.13
2022-10-15T05:28:29.311Z,14.16
2022-10-15T05:30:56.281Z,14.18
2022-10-15T05:33:22.795Z,14.15
2022-10-15T05:35:49.240Z,14.11
2022-10-15T05:38:15.776Z,14.04
2022-10-15T05:40:48.000Z,14.09
2022-10-15T05:43:14.463Z,14.17
2022-10-15T05:45:40.951Z,14.20
2022-10-15T05:48:07.757Z,14.22
2022-10-15T05:50:34.196Z,14.23
2022-10-15T05:53:00.589Z,14.22
2022-10-15T05:55:26.979Z,14.23
2022-10-15T05:57:53.359Z,14.26
2022-10-15T06:00:19.858Z,14.26
2022-10-15T06:02:47.628Z,14.23
2022-10-15T06:05:14.187Z,14.23
2022-10-15T06:07:40.579Z,14.23
2022-10-15T06:10:07.648Z,14.28
2022-10-15T06:12:34.526Z,14.35
2022-10-15T06:15:01.020Z,14.40
2022-10-15T06:17:27.444Z,14.40
2022-10-15T06:19:53.855Z,14.47
2022-10-15T06:22:20.267Z,14.48
2022-10-15T06:24:46.677Z,14.50
2022-10-15T06:27:13.869Z,14.53
2022-10-15T06:29:40.588Z,14.53
2022-10-15T06:32:11.704Z,14.57
2022-10-15T06:34:38.199Z,14.55
2022-10-15T06:37:04.621Z,14.55
2022-10-15T06:39:31.022Z,14.54
2022-10-15T06:41:57.448Z,14.60
2022-10-15T06:44:24.768Z,14.63
2022-10-15T06:46:51.205Z,14.58
2022-10-15T06:49:17.614Z,14.58
2022-10-15T06:51:44.120Z,14.58
2022-10-15T06:54:10.534Z,14.58
2022-10-15T06:56:36.949Z,14.58
2022-10-15T06:59:05.316Z,14.67
2022-10-15T07:01:31.885Z,14.70
2022-10-15T07:03:58.286Z,14.70
2022-10-15T07:06:25.579Z,14.70
2022-10-15T07:08:51.969Z,14.69
2022-10-15T07:11:18.429Z,14.64
2022-10-15T07:13:44.836Z,14.61
2022-10-15T07:16:12.621Z,14.64
2022-10-15T07:18:40.022Z,14.67
2022-10-15T07:21:08.433Z,14.71
2022-10-15T07:23:35.109Z,14.75
2022-10-15T07:26:02.079Z,14.82
2022-10-15T07:28:28.604Z,14.82
2022-10-15T07:30:55.089Z,14.82
2022-10-15T07:33:21.577Z,14.88
2022-10-15T07:35:48.307Z,14.90
2022-10-15T07:38:14.724Z,14.91
2022-10-15T07:40:41.162Z,14.95
2022-10-15T07:43:07.574Z,15.00
2022-10-15T07:45:34.086Z,15.03
2022-10-15T07:48:00.509Z,15.03
2022-10-15T07:50:29.299Z,15.08
2022-10-15T07:52:58.747Z,15.15
2022-10-15T07:55:25.201Z,15.19
2022-10-15T07:57:51.603Z,15.21
2022-10-15T08:00:18.240Z,15.20
2022-10-15T08:02:45.437Z,15.23
2022-10-15T08:05:11.871Z,15.25
2022-10-15T08:07:38.302Z,15.31
2022-10-15T08:10:06.352Z,15.29
2022-10-15T08:12:32.779Z,15.29
2022-10-15T08:14:59.345Z,15.34
2022-10-15T08:17:25.756Z,15.40
2022-10-15T08:19:52.209Z,15.45
2022-10-15T08:22:18.664Z,15.46
2022-10-15T08:24:45.101Z,15.49
2022-10-15T08:27:11.557Z,15.52
2022-10-15T08:29:37.998Z,15.57
2022-10-15T08:32:04.563Z,15.60
2022-10-15T08:34:30.980Z,15.62
2022-10-15T08:36:57.364Z,15.67
2022-10-15T08:39:23.776Z,15.74
2022-10-15T08:41:54.837Z,15.83
2022-10-15T08:44:31.388Z,15.90
2022-10-15T08:47:27.145Z,15.93
2022-10-15T08:50:02.753Z,16.00
2022-10-15T08:52:43.149Z,16.04
2022-10-15T08:55:13.083Z,16.07
2022-10-15T08:58:02.021Z,16.15
2022-10-15T09:00:42.197Z,16.20
2022-10-15T09:03:29.342Z,16.21
2022-10-15T09:06:20.719Z,16.18
2022-10-15T09:08:50.128Z,16.15
2022-10-15T09:11:35.633Z,16.23
2022-10-15T09:14:05.348Z,16.33
2022-10-15T09:16:38.892Z,16.41
2022-10-15T09:19:14.730Z,16.45
2022-10-15T09:21:41.397Z,16.47
2022-10-15T09:24:11.670Z,16.51
2022-10-15T09:27:10.539Z,16.58
2022-10-15T09:29:46.665Z,16.62
2022-10-15T09:32:23.567Z,16.65
2022-10-15T09:35:22.177Z,16.68
2022-10-15T09:38:03.466Z,16.67
2022-10-15T09:41:16.148Z,16.67
2022-10-15T09:43:46.712Z,16.68
2022-10-15T09:46:13.344Z,16.76
2022-10-15T09:48:52.638Z,16.86
2022-10-15T09:51:21.918Z,16.95
2022-10-15T09:54:10.116Z,17.08
2022-10-15T09:56:39.477Z,17.12
2022-10-15T09:59:08.809Z,17.16
2022-10-15T10:01:36.088Z,17.19
2022-10-15T10:04:14.288Z,17.19
2022-10-15T10:06:53.863Z,17.17
2022-10-15T10:09:23.483Z,17.19
2022-10-15T10:12:00.675Z,17.29
2022-10-15T10:14:39.230Z,17.35
2022-10-15T10:17:18.610Z,17.41
2022-10-15T10:20:01.970Z,17.46
2022-10-15T10:22:28.841Z,17.58
2022-10-15T10:24:55.388Z,17.65
2022-10-15T10:27:29.188Z,17.69
2022-10-15T10:30:07.454Z,17.66
2022-10-15T10:32:35.203Z,17.68
2022-10-15T10:35:03.980Z,17.75
2022-10-15T10:37:42.504Z,17.78
2022-10-15T10:40:30.309Z,17.75
2022-10-15T10:43:16.468Z,17.89
2022-10-15T10:46:04.392Z,18.07
2022-10-15T10:48:43.119Z,18.13
2022-10-15T10:51:19.696Z,18.31
2022-10-15T10:53:51.051Z,18.40
2022-10-15T10:56:22.396Z,18.59
2022-10-15T10:58:55.420Z,18.73
2022-10-15T11:01:21.990Z,18.80
2022-10-15T11:03:49.337Z,18.86
2022-10-15T11:06:46.358Z,18.89
2022-10-15T11:09:34.515Z,19.02
2022-10-15T11:12:28.954Z,19.23
2022-10-15T11:15:17.518Z,19.27
2022-10-15T11:17:56.862Z,19.23
2022-10-15T11:20:53.086Z,19.20
2022-10-15T11:23:46.140Z,19.17
2022-10-15T11:26:51.474Z,19.11
2022-10-15T11:29:35.769Z,19.09
2022-10-15T11:32:26.004Z,19.05
2022-10-15T11:35:20.206Z,19.09
2022-10-15T11:38:19.211Z,19.19
2022-10-15T11:41:11.356Z,19.21
2022-10-15T11:44:02.589Z,19.27
2022-10-15T11:46:44.156Z,19.45
2022-10-15T11:49:52.024Z,19.62
2022-10-15T11:52:27.795Z,19.76
2022-10-15T11:55:16.004Z,19.87
2022-10-15T11:57:44.275Z,19.99
2022-10-15T12:00:20.410Z,20.02
2022-10-15T12:02:49.412Z,20.09
2022-10-15T12:05:27.822Z,20.05
2022-10-15T12:07:55.705Z,20.08
2022-10-15T12:10:47.773Z,20.15
2022-10-15T12:13:56.122Z,20.12
2022-10-15T12:16:28.468Z,20.13
2022-10-15T12:19:32.471Z,20.08
2022-10-15T12:21:58.818Z,20.03
2022-10-15T12:24:37.425Z,19.97
2022-10-15T12:27:19.010Z,19.97
2022-10-15T12:29:51.055Z,20.04
2022-10-15T12:32:25.948Z,20.21
2022-10-15T12:34:57.889Z,20.34
2022-10-15T12:37:27.698Z,20.36
2022-10-15T12:39:57.262Z,20.34
2022-10-15T12:42:37.629Z,20.24
2022-10-15T12:45:17.488Z,20.29
2022-10-15T12:47:54.648Z,20.15
2022-10-15T12:50:29.996Z,20.12
2022-10-15T12:53:06.415Z,20.15
2022-10-15T12:55:35.443Z,20.18
2022-10-15T12:58:35.000Z,20.27
2022-10-15T13:01:13.623Z,20.30
2022-10-15T13:03:51.852Z,20.50
2022-10-15T13:06:21.286Z,20.66
2022-10-15T13:08:51.555Z,20.62
2022-10-15T13:11:23.936Z,20.49
2022-10-15T13:13:56.386Z,20.39
2022-10-15T13:16:23.068Z,20.28
2022-10-15T13:18:52.169Z,20.19
2022-10-15T13:21:18.666Z,20.30
2022-10-15T13:23:50.047Z,20.32
2022-10-15T13:26:26.898Z,20.29
2022-10-15T13:28:57.270Z,20.39
2022-10-15T13:31:36.965Z,20.44
2022-10-15T13:34:22.124Z,20.41
2022-10-15T13:36:49.820Z,20.49
2022-10-15T13:39:27.190Z,20.38
2022-10-15T13:42:05.906Z,20.26
2022-10-15T13:44:32.433Z,20.26
2022-10-15T13:46:58.935Z,20.36
2022-10-15T13:49:28.067Z,20.38
2022-10-15T13:51:55.840Z,20.35
2022-10-15T13:54:31.395Z,20.32
2022-10-15T13:57:01.718Z,20.37
2022-10-15T13:59:30.756Z,20.41
2022-10-15T14:02:01.148Z,20.40
2022-10-15T14:04:30.410Z,20.39
2022-10-15T14:07:03.282Z,20.43
2022-10-15T14:09:36.251Z,20.52
2022-10-15T14:12:06.343Z,20.53
2022-10-15T14:14:35.802Z,20.50
2022-10-15T14:17:16.917Z,20.43
2022-10-15T14:20:02.194Z,20.32
2022-10-15T14:22:36.848Z,20.31
2022-10-15T14:25:10.222Z,20.23
2022-10-15T14:27:36.777Z,20.14
2022-10-15T14:30:26.313Z,20.08
2022-10-15T14:32:52.806Z,20.07
2022-10-15T14:35:32.796Z,20.17
2022-10-15T14:38:05.076Z,20.18
2022-10-15T14:40:31.652Z,20.16
2022-10-15T14:43:03.633Z,20.13
2022-10-15T14:45:39.460Z,20.03
2022-10-15T14:48:19.189Z,19.94
2022-10-15T14:50:46.137Z,19.92
2022-10-15T14:53:19.992Z,19.87
2022-10-15T14:56:15.594Z,19.82
2022-10-15T14:58:51.936Z,19.88
2022-10-15T15:01:20.131Z,19.87
2022-10-15T15:03:55.583Z,19.81
2022-10-15T15:06:21.989Z,19.85
2022-10-15T15:08:48.528Z,19.87
2022-10-15T15:11:20.463Z,19.89
2022-10-15T15:13:47.953Z,19.88
2022-10-15T15:16:16.792Z,19.82
2022-10-15T15:18:43.993Z,19.77
2022-10-15T15:21:16.591Z,19.74
2022-10-15T15:23:43.620Z,19.73
2022-10-15T15:26:10.062Z,19.73
2022-10-15T15:28:36.641Z,19.69
2022-10-15T15:31:06.713Z,19.67
2022-10-15T15:33:33.855Z,19.62
2022-10-15T15:36:07.426Z,19.58
2022-10-15T15:41:17.767Z,19.59
2022-10-15T15:43:45.616Z,19.59
2022-10-15T15:46:12.387Z,19.57
2022-10-15T15:48:38.803Z,19.54
2022-10-15T15:51:17.296Z,19.55
2022-10-15T15:53:43.733Z,19.53
2022-10-15T15:56:10.143Z,19.48
2022-10-15T15:58:36.608Z,19.41
2022-10-15T16:01:03.229Z,19.37
2022-10-15T16:03:29.613Z,19.33
2022-10-15T16:05:56.080Z,19.29
2022-10-15T16:08:22.570Z,19.24
2022-10-15T16:10:48.984Z,19.19
2022-10-15T16:13:15.632Z,19.14
2022-10-15T16:15:42.049Z,19.10
2022-10-15T16:18:09.237Z,19.07
2022-10-15T16:20:39.395Z,19.07
2022-10-15T16:23:05.952Z,19.11
2022-10-15T16:25:32.384Z,19.11
2022-10-15T16:28:01.701Z,19.11
2022-10-15T16:30:28.441Z,19.12
2022-10-15T16:32:55.131Z,19.09
2022-10-15T16:35:21.558Z,19.00
2022-10-15T16:37:48.211Z,18.94
2022-10-15T16:40:15.602Z,18.91
2022-10-15T16:42:42.010Z,18.86
2022-10-15T16:45:09.605Z,18.80
2022-10-15T16:47:36.009Z,18.74
2022-10-15T16:50:04.022Z,18.67
2022-10-15T16:52:30.558Z,18.62
2022-10-15T16:54:56.974Z,18.59
2022-10-15T16:57:23.416Z,18.60
2022-10-15T16:59:49.861Z,18.60
2022-10-15T17:02:16.269Z,18.57
2022-10-15T17:04:42.677Z,18.56
2022-10-15T17:07:09.152Z,18.54
2022-10-15T17:09:35.692Z,18.52
2022-10-15T17:12:02.171Z,18.51
2022-10-15T17:14:28.902Z,18.49
2022-10-15T17:16:55.324Z,18.46
2022-10-15T17:19:27.836Z,18.44
2022-10-15T17:21:57.193Z,18.39
2022-10-15T17:24:23.827Z,18.36
2022-10-15T17:26:50.328Z,18.28
2022-10-15T17:29:24.737Z,18.19
2022-10-15T17:31:53.022Z,18.17
2022-10-15T17:34:19.506Z,18.15
2022-10-15T17:36:48.285Z,18.14
2022-10-15T17:39:17.510Z,18.10
2022-10-15T17:41:44.063Z,18.00
2022-10-15T17:44:12.385Z,17.95
2022-10-15T17:46:39.290Z,17.89
2022-10-15T17:49:07.868Z,17.86
2022-10-15T17:51:34.766Z,17.82
2022-10-15T17:54:01.640Z,17.85
2022-10-15T17:56:34.370Z,17.83
2022-10-15T17:59:03.461Z,17.77
2022-10-15T18:01:56.282Z,17.66
2022-10-15T18:04:18.760Z,17.56
2022-10-15T18:06:45.445Z,17.48
2022-10-15T18:09:11.956Z,17.47
2022-10-15T18:11:38.580Z,17.46
2022-10-15T18:14:05.017Z,17.49
2022-10-15T18:16:32.213Z,17.51
2022-10-15T18:18:58.910Z,17.53
2022-10-15T18:21:27.363Z,17.56
2022-10-15T18:23:56.345Z,17.62
2022-10-15T18:26:23.098Z,17.63
2022-10-15T18:28:51.573Z,17.61
2022-10-15T18:31:18.353Z,17.54
2022-10-15T18:33:48.167Z,17.46
2022-10-15T18:36:18.754Z,17.39
2022-10-15T18:38:45.455Z,17.31
2022-10-15T18:41:23.447Z,17.29
2022-10-15T18:43:58.801Z,17.27
2022-10-15T18:46:27.499Z,17.29
2022-10-15T18:48:54.631Z,17.32
2022-10-15T18:51:22.086Z,17.31
2022-10-15T18:53:48.737Z,17.27
2022-10-15T18:56:15.292Z,17.23
2022-10-15T18:58:45.546Z,17.18
2022-10-15T19:01:13.887Z,17.15
2022-10-15T19:03:40.533Z,17.09
2022-10-15T19:06:06.941Z,17.03
2022-10-15T19:08:34.072Z,16.91
2022-10-15T19:11:05.937Z,16.84
2022-10-15T19:13:32.332Z,16.82
2022-10-15T19:16:01.505Z,16.85
2022-10-15T19:18:28.522Z,16.89
2022-10-15T19:20:55.127Z,16.88
2022-10-15T19:23:21.905Z,16.87
2022-10-15T19:25:48.346Z,16.89
2022-10-15T19:28:15.071Z,16.90
2022-10-15T19:30:41.508Z,16.85
2022-10-15T19:33:08.173Z,16.83
2022-10-15T19:35:39.973Z,16.87
2022-10-15T19:38:06.846Z,16.86
2022-10-15T19:40:38.142Z,16.87
2022-10-15T19:43:05.800Z,16.87
2022-10-15T19:45:37.303Z,16.87
2022-10-15T19:48:04.338Z,16.81
2022-10-15T19:50:30.848Z,16.80
2022-10-15T19:52:57.292Z,16.81
2022-10-15T19:55:23.730Z,16.81
2022-10-15T19:57:50.129Z,16.85
2022-10-15T20:00:23.095Z,16.90
2022-10-15T20:02:53.509Z,16.96
2022-10-15T20:05:19.979Z,17.00
2022-10-15T20:07:46.426Z,17.03
2022-10-15T20:10:13.160Z,17.07
2022-10-15T20:12:39.622Z,17.11
2022-10-15T20:15:06.770Z,17.15
2022-10-15T20:17:33.168Z,17.18
2022-10-15T20:19:59.611Z,17.21
2022-10-15T20:22:26.417Z,17.20
2022-10-15T20:24:52.966Z,17.20
2022-10-15T20:27:19.384Z,17.22
2022-10-15T20:29:45.789Z,17.25
2022-10-15T20:32:30.258Z,17.27
2022-10-15T20:35:01.102Z,17.28
2022-10-15T20:37:28.559Z,17.29
2022-10-15T20:42:21.417Z,17.30
2022-10-15T20:44:47.811Z,17.28
2022-10-15T20:47:15.660Z,17.28
2022-10-15T20:49:45.374Z,17.27
2022-10-15T20:52:13.720Z,17.25
2022-10-15T20:54:40.128Z,17.26
2022-10-15T20:57:06.574Z,17.24
2022-10-15T20:59:33.235Z,17.23
2022-10-15T21:01:59.695Z,17.25
2022-10-15T21:04:26.114Z,17.26
2022-10-15T21:06:52.553Z,17.24
2022-10-15T21:09:18.977Z,17.21
2022-10-15T21:11:46.518Z,17.18
2022-10-15T21:14:13.749Z,17.17
2022-10-15T21:16:40.799Z,17.17
2022-10-15T21:19:07.282Z,17.14
2022-10-15T21:21:33.774Z,17.13
2022-10-15T21:24:00.480Z,17.12
2022-10-15T21:26:26.912Z,17.12
2022-10-15T21:28:58.244Z,17.13
2022-10-15T21:31:26.429Z,17.16
2022-10-15T21:33:54.909Z,17.18
2022-10-15T21:36:26.968Z,17.22
2022-10-15T21:38:56.026Z,17.25
2022-10-15T21:41:23.298Z,17.22
2022-10-15T21:46:21.073Z,17.21
2022-10-15T21:48:47.948Z,17.22
2022-10-15T21:51:16.676Z,17.21
2022-10-15T21:53:43.324Z,17.18
2022-10-15T21:56:09.858Z,17.10
2022-10-15T21:58:38.174Z,17.08
2022-10-15T22:01:09.647Z,17.11
2022-10-15T22:03:36.195Z,17.11
2022-10-15T22:06:02.883Z,17.13
2022-10-15T22:08:30.059Z,17.06
2022-10-15T22:11:09.205Z,17.03
2022-10-15T22:13:36.189Z,16.98
2022-10-15T22:16:03.515Z,16.97
2022-10-15T22:18:29.918Z,16.97
2022-10-15T22:20:56.701Z,16.95
2022-10-15T22:23:26.973Z,16.96
2022-10-15T22:25:58.706Z,16.98
2022-10-15T22:28:25.668Z,16.97
2022-10-15T22:30:52.278Z,17.01
2022-10-15T22:33:18.732Z,16.98
2022-10-15T22:35:45.211Z,16.94
2022-10-15T22:38:11.629Z,16.92
2022-10-15T22:40:38.045Z,16.90
2022-10-15T22:43:04.551Z,16.91
2022-10-15T22:45:30.957Z,16.88
2022-10-15T22:47:57.358Z,16.87
2022-10-15T22:50:23.774Z,16.89
2022-10-15T22:52:50.174Z,16.90
2022-10-15T22:55:16.722Z,16.89
2022-10-15T22:57:44.083Z,16.92
2022-10-15T23:00:11.260Z,16.92
2022-10-15T23:02:37.669Z,16.96
2022-10-15T23:05:04.285Z,16.93
2022-10-15T23:07:30.726Z,16.88
2022-10-15T23:09:57.139Z,16.85
2022-10-15T23:12:23.897Z,16.82
2022-10-15T23:14:50.523Z,16.78
2022-10-15T23:17:16.986Z,16.79
2022-10-15T23:19:43.401Z,16.79
2022-10-15T23:22:09.920Z,16.78
2022-10-15T23:24:36.332Z,16.72
2022-10-15T23:27:02.838Z,16.72
2022-10-15T23:29:29.276Z,16.75
2022-10-15T23:31:55.734Z,16.77
2022-10-15T23:34:24.762Z,16.75
2022-10-15T23:36:52.029Z,16.75
2022-10-15T23:39:21.388Z,16.76
2022-10-15T23:41:47.841Z,16.78
2022-10-15T23:44:14.585Z,16.79
2022-10-15T23:46:41.247Z,16.79
2022-10-15T23:49:08.485Z,16.81
2022-10-15T23:51:35.013Z,16.78
2022-10-15T23:54:02.556Z,16.76
2022-10-15T23:56:30.182Z,16.75
2022-10-15T23:58:59.209Z,16.74
